aviador You're here:

NCRG Decoded Metar

AVARUA in COOK ISLANDS
Report Time2018-01-17 09:00:00
UTC Time2018-01-17 09:19:19
Flight Rules vfr VFR
Wind050° at 02 kt
W.Decomp.*RWY 08: 1.4 kt HW 1.4 kt LCW
W.Rank050° ranks 9
Current wind is below 050° avg. (9.6)
Visibility9999 m
Phenomena:N/A
Clouds:Few 018 Hf
Broken 290 Hf
Expected CloudBase > 1,200 ft AGL from Temp-Dew spread
Ceiling29,000 ft
Temp26°C (ISA +11)
Dew Point23°C (84% RH)
QNH1014 hPa
Density Alt1,634 ft
Elevation23 ft
Report Wrong Elevation
Raw Report
NCRG 170900Z 05002KT 9999 FEW018 BKN290 26/23 Q1014=

Extra information for NCRG:More info

Metar Taf Metar & Taf Last 4 Metars F.Rules Stats Wind Profile Meteogram Temp Stats Airport Information Weather charts Add Link Nearby VenuesMetar ALERT Operation Metar Decoded Social comments